sensor_id;sensor_type;location;lat;lon;timestamp;pressure;altitude;pressure_sealevel;temperature;humidity
51829;BME280;37881;48.024;8.774;2024-03-02T00:01:15;92803.31;;;4.62;100.00
51829;BME280;37881;48.024;8.774;2024-03-02T00:03:43;92797.84;;;4.66;100.00
51829;BME280;37881;48.024;8.774;2024-03-02T00:06:12;92795.69;;;4.50;100.00
51829;BME280;37881;48.024;8.774;2024-03-02T00:08:39;92791.88;;;4.44;100.00
51829;BME280;37881;48.024;8.774;2024-03-02T00:11:07;92795.63;;;4.57;100.00
51829;BME280;37881;48.024;8.774;2024-03-02T00:13:34;92801.72;;;4.65;100.00
51829;BME280;37881;48.024;8.774;2024-03-02T00:16:02;92794.31;;;4.69;100.00
51829;BME280;37881;48.024;8.774;2024-03-02T00:18:35;92801.31;;;4.66;100.00
51829;BME280;37881;48.024;8.774;2024-03-02T00:21:03;92785.75;;;4.70;100.00
51829;BME280;37881;48.024;8.774;2024-03-02T00:23:30;92785.75;;;4.70;100.00
51829;BME280;37881;48.024;8.774;2024-03-02T00:25:58;92785.13;;;4.59;100.00
51829;BME280;37881;48.024;8.774;2024-03-02T00:28:34;92792.47;;;4.58;100.00
51829;BME280;37881;48.024;8.774;2024-03-02T00:31:11;92792.44;;;4.62;100.00
51829;BME280;37881;48.024;8.774;2024-03-02T00:33:45;92791.19;;;4.70;100.00
51829;BME280;37881;48.024;8.774;2024-03-02T00:36:26;92793.78;;;4.47;100.00
51829;BME280;37881;48.024;8.774;2024-03-02T00:38:54;92796.59;;;4.36;100.00
51829;BME280;37881;48.024;8.774;2024-03-02T00:41:23;92800.34;;;4.49;100.00
51829;BME280;37881;48.024;8.774;2024-03-02T00:44:00;92802.19;;;4.59;100.00
51829;BME280;37881;48.024;8.774;2024-03-02T00:46:33;92799.38;;;4.67;100.00
51829;BME280;37881;48.024;8.774;2024-03-02T00:49:02;92797.00;;;4.72;100.00
51829;BME280;37881;48.024;8.774;2024-03-02T00:51:33;92796.53;;;4.81;100.00
51829;BME280;37881;48.024;8.774;2024-03-02T00:54:04;92795.72;;;4.80;100.00
51829;BME280;37881;48.024;8.774;2024-03-02T00:56:32;92796.97;;;4.76;100.00
51829;BME280;37881;48.024;8.774;2024-03-02T00:58:59;92800.03;;;4.78;100.00
51829;BME280;37881;48.024;8.774;2024-03-02T01:01:26;92790.75;;;4.75;100.00
51829;BME280;37881;48.024;8.774;2024-03-02T01:03:53;92799.28;;;4.77;100.00
51829;BME280;37881;48.024;8.774;2024-03-02T01:06:20;92792.28;;;4.76;100.00
51829;BME280;37881;48.024;8.774;2024-03-02T01:08:48;92795.06;;;4.73;100.00
51829;BME280;37881;48.024;8.774;2024-03-02T01:11:19;92788.97;;;4.62;100.00
51829;BME280;37881;48.024;8.774;2024-03-02T01:13:47;92786.31;;;4.54;100.00
51829;BME280;37881;48.024;8.774;2024-03-02T01:16:14;92795.31;;;4.48;100.00
51829;BME280;37881;48.024;8.774;2024-03-02T01:18:42;92787.56;;;4.46;100.00
51829;BME280;37881;48.024;8.774;2024-03-02T01:21:09;92784.25;;;4.31;100.00
51829;BME280;37881;48.024;8.774;2024-03-02T01:23:35;92788.56;;;4.25;100.00
51829;BME280;37881;48.024;8.774;2024-03-02T01:26:02;92784.72;;;4.23;100.00
51829;BME280;37881;48.024;8.774;2024-03-02T01:28:29;92790.22;;;4.12;100.00
51829;BME280;37881;48.024;8.774;2024-03-02T01:30:56;92792.59;;;4.06;100.00
51829;BME280;37881;48.024;8.774;2024-03-02T01:33:23;92807.47;;;3.94;100.00
51829;BME280;37881;48.024;8.774;2024-03-02T01:35:50;92801.31;;;3.87;100.00
51829;BME280;37881;48.024;8.774;2024-03-02T01:38:17;92796.69;;;3.84;100.00
51829;BME280;37881;48.024;8.774;2024-03-02T01:40:44;92794.72;;;3.84;100.00
51829;BME280;37881;48.024;8.774;2024-03-02T01:43:13;92794.78;;;3.80;100.00
51829;BME280;37881;48.024;8.774;2024-03-02T01:45:40;92792.81;;;3.81;100.00
51829;BME280;37881;48.024;8.774;2024-03-02T01:48:07;92799.09;;;3.71;100.00
51829;BME280;37881;48.024;8.774;2024-03-02T01:50:35;92795.63;;;3.70;100.00
51829;BME280;37881;48.024;8.774;2024-03-02T01:53:02;92793.69;;;3.71;100.00
51829;BME280;37881;48.024;8.774;2024-03-02T01:55:31;92789.00;;;3.75;100.00
51829;BME280;37881;48.024;8.774;2024-03-02T01:57:59;92798.28;;;3.77;100.00
51829;BME280;37881;48.024;8.774;2024-03-02T02:00:26;92783.56;;;3.75;100.00
51829;BME280;37881;48.024;8.774;2024-03-02T02:02:54;92782.47;;;3.69;100.00
51829;BME280;37881;48.024;8.774;2024-03-02T02:05:21;92787.63;;;3.52;100.00
51829;BME280;37881;48.024;8.774;2024-03-02T02:07:48;92780.66;;;3.48;100.00
51829;BME280;37881;48.024;8.774;2024-03-02T02:10:15;92778.78;;;3.41;100.00
51829;BME280;37881;48.024;8.774;2024-03-02T02:12:42;92782.69;;;3.36;100.00
51829;BME280;37881;48.024;8.774;2024-03-02T02:15:28;92787.38;;;3.25;100.00
51829;BME280;37881;48.024;8.774;2024-03-02T02:17:57;92786.56;;;3.32;100.00
51829;BME280;37881;48.024;8.774;2024-03-02T02:20:25;92788.50;;;3.31;100.00
51829;BME280;37881;48.024;8.774;2024-03-02T02:23:02;92779.81;;;2.98;100.00
51829;BME280;37881;48.024;8.774;2024-03-02T02:25:30;92785.97;;;2.99;100.00
51829;BME280;37881;48.024;8.774;2024-03-02T02:27:57;92781.31;;;3.03;100.00
51829;BME280;37881;48.024;8.774;2024-03-02T02:30:29;92781.31;;;3.03;100.00
51829;BME280;37881;48.024;8.774;2024-03-02T02:32:57;92779.00;;;3.02;100.00
51829;BME280;37881;48.024;8.774;2024-03-02T02:35:25;92781.38;;;2.92;100.00
51829;BME280;37881;48.024;8.774;2024-03-02T02:37:52;92772.50;;;2.88;100.00
51829;BME280;37881;48.024;8.774;2024-03-02T02:40:20;92774.38;;;2.95;100.00
51829;BME280;37881;48.024;8.774;2024-03-02T02:42:47;92777.47;;;2.97;100.00
51829;BME280;37881;48.024;8.774;2024-03-02T02:45:15;92774.38;;;2.98;100.00
51829;BME280;37881;48.024;8.774;2024-03-02T02:47:43;92771.66;;;2.98;100.00
51829;BME280;37881;48.024;8.774;2024-03-02T02:50:11;92772.81;;;2.97;100.00
51829;BME280;37881;48.024;8.774;2024-03-02T02:52:40;92772.44;;;2.95;100.00
51829;BME280;37881;48.024;8.774;2024-03-02T02:55:09;92765.47;;;2.98;100.00
51829;BME280;37881;48.024;8.774;2024-03-02T02:57:38;92771.28;;;2.96;100.00
51829;BME280;37881;48.024;8.774;2024-03-02T03:00:11;92765.47;;;2.98;100.00
51829;BME280;37881;48.024;8.774;2024-03-02T03:02:46;92764.31;;;2.95;100.00
51829;BME280;37881;48.024;8.774;2024-03-02T03:05:15;92760.47;;;2.93;100.00
51829;BME280;37881;48.024;8.774;2024-03-02T03:07:42;92757.00;;;2.92;100.00
51829;BME280;37881;48.024;8.774;2024-03-02T03:10:11;92765.88;;;2.93;100.00
51829;BME280;37881;48.024;8.774;2024-03-02T03:12:37;92763.56;;;2.88;100.00
51829;BME280;37881;48.024;8.774;2024-03-02T03:15:05;92760.84;;;2.91;100.00
51829;BME280;37881;48.024;8.774;2024-03-02T03:17:33;92759.34;;;2.79;100.00
51829;BME280;37881;48.024;8.774;2024-03-02T03:20:02;92766.69;;;2.90;100.00
51829;BME280;37881;48.024;8.774;2024-03-02T03:22:31;92764.31;;;2.95;100.00
51829;BME280;37881;48.024;8.774;2024-03-02T03:24:58;92766.25;;;2.98;100.00
51829;BME280;37881;48.024;8.774;2024-03-02T03:27:26;92769.72;;;2.99;100.00
51829;BME280;37881;48.024;8.774;2024-03-02T03:29:53;92768.94;;;3.02;100.00
51829;BME280;37881;48.024;8.774;2024-03-02T03:32:21;92761.19;;;3.00;100.00
51829;BME280;37881;48.024;8.774;2024-03-02T03:34:48;92776.66;;;3.07;100.00
51829;BME280;37881;48.024;8.774;2024-03-02T03:37:15;92772.34;;;3.13;100.00
51829;BME280;37881;48.024;8.774;2024-03-02T03:39:42;92770.38;;;3.21;100.00
51829;BME280;37881;48.024;8.774;2024-03-02T03:42:09;92773.84;;;3.25;100.00
51829;BME280;37881;48.024;8.774;2024-03-02T03:44:35;92773.06;;;3.28;100.00
51829;BME280;37881;48.024;8.774;2024-03-02T03:47:02;92767.59;;;3.32;100.00
51829;BME280;37881;48.024;8.774;2024-03-02T03:49:29;92768.34;;;3.36;100.00
51829;BME280;37881;48.024;8.774;2024-03-02T03:51:56;92772.53;;;3.48;100.00
51829;BME280;37881;48.024;8.774;2024-03-02T03:54:23;92767.47;;;3.50;100.00
51829;BME280;37881;48.024;8.774;2024-03-02T03:56:49;92772.88;;;3.53;100.00
51829;BME280;37881;48.024;8.774;2024-03-02T03:59:16;92774.81;;;3.53;100.00
51829;BME280;37881;48.024;8.774;2024-03-02T04:01:43;92772.41;;;3.62;100.00
51829;BME280;37881;48.024;8.774;2024-03-02T04:04:10;92774.72;;;3.67;100.00
51829;BME280;37881;48.024;8.774;2024-03-02T04:06:36;92774.69;;;3.71;100.00
51829;BME280;37881;48.024;8.774;2024-03-02T04:09:03;92773.09;;;3.73;100.00
51829;BME280;37881;48.024;8.774;2024-03-02T04:11:30;92763.91;;;3.60;100.00
51829;BME280;37881;48.024;8.774;2024-03-02T04:13:57;92776.31;;;3.61;100.00
51829;BME280;37881;48.024;8.774;2024-03-02T04:16:24;92778.94;;;3.72;100.00
51829;BME280;37881;48.024;8.774;2024-03-02T04:18:51;92778.88;;;3.79;100.00
51829;BME280;37881;48.024;8.774;2024-03-02T04:21:18;92781.13;;;3.88;100.00
51829;BME280;37881;48.024;8.774;2024-03-02T04:23:45;92775.31;;;3.89;100.00
51829;BME280;37881;48.024;8.774;2024-03-02T04:26:12;92787.31;;;3.88;100.00
51829;BME280;37881;48.024;8.774;2024-03-02T04:28:38;92782.00;;;3.74;100.00
51829;BME280;37881;48.024;8.774;2024-03-02T04:31:05;92779.72;;;3.72;100.00
51829;BME280;37881;48.024;8.774;2024-03-02T04:33:32;92778.25;;;3.60;100.00
51829;BME280;37881;48.024;8.774;2024-03-02T04:35:59;92777.88;;;3.58;100.00
51829;BME280;37881;48.024;8.774;2024-03-02T04:38:26;92772.78;;;3.64;100.00
51829;BME280;37881;48.024;8.774;2024-03-02T04:40:53;92776.78;;;3.49;100.00
51829;BME280;37881;48.024;8.774;2024-03-02T04:43:19;92777.94;;;3.48;100.00
51829;BME280;37881;48.024;8.774;2024-03-02T04:45:46;92771.66;;;3.62;100.00
51829;BME280;37881;48.024;8.774;2024-03-02T04:48:13;92767.03;;;3.58;100.00
51829;BME280;37881;48.024;8.774;2024-03-02T04:50:41;92768.25;;;3.50;100.00
51829;BME280;37881;48.024;8.774;2024-03-02T04:53:07;92767.16;;;3.40;100.00
51829;BME280;37881;48.024;8.774;2024-03-02T04:55:34;92764.06;;;3.38;100.00
51829;BME280;37881;48.024;8.774;2024-03-02T04:58:01;92770.22;;;3.46;100.00
51829;BME280;37881;48.024;8.774;2024-03-02T05:00:28;92774.06;;;3.49;100.00
51829;BME280;37881;48.024;8.774;2024-03-02T05:02:55;92776.06;;;3.37;100.00
51829;BME280;37881;48.024;8.774;2024-03-02T05:05:21;92784.19;;;3.41;100.00
51829;BME280;37881;48.024;8.774;2024-03-02T05:07:48;92785.72;;;3.46;100.00
51829;BME280;37881;48.024;8.774;2024-03-02T05:10:15;92778.75;;;3.48;100.00
51829;BME280;37881;48.024;8.774;2024-03-02T05:12:42;92779.84;;;3.54;100.00
51829;BME280;37881;48.024;8.774;2024-03-02T05:15:10;92788.72;;;3.58;100.00
51829;BME280;37881;48.024;8.774;2024-03-02T05:17:38;92789.53;;;3.52;100.00
51829;BME280;37881;48.024;8.774;2024-03-02T05:20:06;92797.63;;;3.59;100.00
51829;BME280;37881;48.024;8.774;2024-03-02T05:22:35;92802.66;;;3.60;100.00
51829;BME280;37881;48.024;8.774;2024-03-02T05:25:03;92808.47;;;3.63;100.00
51829;BME280;37881;48.024;8.774;2024-03-02T05:27:30;92810.81;;;3.60;100.00
51829;BME280;37881;48.024;8.774;2024-03-02T05:29:59;92817.03;;;3.54;100.00
51829;BME280;37881;48.024;8.774;2024-03-02T05:32:27;92815.00;;;3.69;100.00
51829;BME280;37881;48.024;8.774;2024-03-02T05:34:53;92817.75;;;3.62;100.00
51829;BME280;37881;48.024;8.774;2024-03-02T05:37:21;92816.66;;;3.55;100.00
51829;BME280;37881;48.024;8.774;2024-03-02T05:39:48;92809.34;;;3.49;100.00
51829;BME280;37881;48.024;8.774;2024-03-02T05:42:15;92804.25;;;3.54;100.00
51829;BME280;37881;48.024;8.774;2024-03-02T05:44:43;92791.59;;;3.37;100.00
51829;BME280;37881;48.024;8.774;2024-03-02T05:47:10;92803.59;;;3.36;100.00
51829;BME280;37881;48.024;8.774;2024-03-02T05:49:36;92795.44;;;3.36;100.00
51829;BME280;37881;48.024;8.774;2024-03-02T05:52:03;92802.44;;;3.33;100.00
51829;BME280;37881;48.024;8.774;2024-03-02T05:54:30;92794.28;;;3.37;100.00
51829;BME280;37881;48.024;8.774;2024-03-02T05:56:57;92796.25;;;3.33;100.00
51829;BME280;37881;48.024;8.774;2024-03-02T05:59:43;92796.63;;;3.38;100.00
51829;BME280;37881;48.024;8.774;2024-03-02T06:02:10;92809.75;;;3.40;100.00
51829;BME280;37881;48.024;8.774;2024-03-02T06:04:37;92808.53;;;3.52;100.00
51829;BME280;37881;48.024;8.774;2024-03-02T06:07:03;92812.06;;;3.45;100.00
51829;BME280;37881;48.024;8.774;2024-03-02T06:09:30;92822.16;;;3.41;100.00
51829;BME280;37881;48.024;8.774;2024-03-02T06:11:57;92818.25;;;3.46;100.00
51829;BME280;37881;48.024;8.774;2024-03-02T06:14:24;92820.16;;;3.52;100.00
51829;BME280;37881;48.024;8.774;2024-03-02T06:16:50;92829.19;;;3.35;100.00
51829;BME280;37881;48.024;8.774;2024-03-02T06:19:17;92824.09;;;3.44;100.00
51829;BME280;37881;48.024;8.774;2024-03-02T06:21:44;92821.34;;;3.48;100.00
51829;BME280;37881;48.024;8.774;2024-03-02T06:24:11;92826.00;;;3.47;100.00
51829;BME280;37881;48.024;8.774;2024-03-02T06:26:38;92831.78;;;3.53;100.00
51829;BME280;37881;48.024;8.774;2024-03-02T06:29:06;92822.13;;;3.48;100.00
51829;BME280;37881;48.024;8.774;2024-03-02T06:31:33;92822.56;;;3.39;100.00
51829;BME280;37881;48.024;8.774;2024-03-02T06:34:00;92822.97;;;3.34;100.00
51829;BME280;37881;48.024;8.774;2024-03-02T06:36:27;92815.25;;;3.29;100.00
51829;BME280;37881;48.024;8.774;2024-03-02T06:38:54;92814.03;;;3.41;100.00
51829;BME280;37881;48.024;8.774;2024-03-02T06:41:20;92816.38;;;3.39;100.00
51829;BME280;37881;48.024;8.774;2024-03-02T06:43:47;92808.16;;;3.50;100.00
51829;BME280;37881;48.024;8.774;2024-03-02T06:46:14;92813.53;;;3.60;100.00
51829;BME280;37881;48.024;8.774;2024-03-02T06:48:41;92824.69;;;3.70;100.00
51829;BME280;37881;48.024;8.774;2024-03-02T06:51:08;92820.75;;;3.78;100.00
51829;BME280;37881;48.024;8.774;2024-03-02T06:53:35;92814.16;;;3.83;100.00
51829;BME280;37881;48.024;8.774;2024-03-02T06:56:02;92809.47;;;3.87;100.00
51829;BME280;37881;48.024;8.774;2024-03-02T06:58:28;92810.72;;;3.71;100.00
51829;BME280;37881;48.024;8.774;2024-03-02T07:00:55;92807.84;;;3.93;100.00
51829;BME280;37881;48.024;8.774;2024-03-02T07:03:22;92815.31;;;3.82;100.00
51829;BME280;37881;48.024;8.774;2024-03-02T07:05:49;92816.13;;;3.75;100.00
51829;BME280;37881;48.024;8.774;2024-03-02T07:08:15;92823.09;;;3.76;100.00
51829;BME280;37881;48.024;8.774;2024-03-02T07:10:42;92825.81;;;3.76;100.00
51829;BME280;37881;48.024;8.774;2024-03-02T07:13:09;92832.44;;;3.71;100.00
51829;BME280;37881;48.024;8.774;2024-03-02T07:15:36;92829.91;;;3.98;100.00
51829;BME280;37881;48.024;8.774;2024-03-02T07:18:31;92823.78;;;4.32;100.00
51829;BME280;37881;48.024;8.774;2024-03-02T07:21:00;92821.81;;;4.74;100.00
51829;BME280;37881;48.024;8.774;2024-03-02T07:23:27;92817.91;;;5.10;100.00
51829;BME280;37881;48.024;8.774;2024-03-02T07:25:54;92820.03;;;5.56;100.00
51829;BME280;37881;48.024;8.774;2024-03-02T07:28:26;92812.06;;;5.69;100.00
51829;BME280;37881;48.024;8.774;2024-03-02T07:30:59;92818.16;;;7.15;100.00
51829;BME280;37881;48.024;8.774;2024-03-02T07:33:27;92799.09;;;9.67;100.00
51829;BME280;37881;48.024;8.774;2024-03-02T07:35:54;92796.03;;;10.98;100.00
51829;BME280;37881;48.024;8.774;2024-03-02T07:38:22;92795.72;;;11.63;100.00
51829;BME280;37881;48.024;8.774;2024-03-02T07:40:49;92805.38;;;12.39;99.05
51829;BME280;37881;48.024;8.774;2024-03-02T07:43:20;92800.28;;;11.88;95.26
51829;BME280;37881;48.024;8.774;2024-03-02T07:45:47;92789.28;;;12.19;100.00
51829;BME280;37881;48.024;8.774;2024-03-02T07:48:15;92794.50;;;14.02;87.83
51829;BME280;37881;48.024;8.774;2024-03-02T07:50:42;92800.16;;;14.41;80.07
51829;BME280;37881;48.024;8.774;2024-03-02T07:53:10;92799.28;;;14.92;72.40
51829;BME280;37881;48.024;8.774;2024-03-02T07:55:37;92801.75;;;14.90;76.02
51829;BME280;37881;48.024;8.774;2024-03-02T07:58:03;92794.88;;;15.09;70.28
51829;BME280;37881;48.024;8.774;2024-03-02T08:00:30;92796.53;;;15.31;69.63
51829;BME280;37881;48.024;8.774;2024-03-02T08:02:57;92792.66;;;16.42;64.88
51829;BME280;37881;48.024;8.774;2024-03-02T08:05:24;92791.03;;;16.85;58.33
51829;BME280;37881;48.024;8.774;2024-03-02T08:07:51;92789.03;;;16.35;60.40
51829;BME280;37881;48.024;8.774;2024-03-02T08:10:21;92785.25;;;16.53;59.10
51829;BME280;37881;48.024;8.774;2024-03-02T08:12:47;92784.63;;;17.87;53.70
51829;BME280;37881;48.024;8.774;2024-03-02T08:15:14;92780.56;;;18.46;53.67
51829;BME280;37881;48.024;8.774;2024-03-02T08:17:41;92779.72;;;18.34;49.29
51829;BME280;37881;48.024;8.774;2024-03-02T08:20:12;92781.19;;;16.84;55.21
51829;BME280;37881;48.024;8.774;2024-03-02T08:22:39;92782.72;;;18.68;50.76
51829;BME280;37881;48.024;8.774;2024-03-02T08:25:07;92784.84;;;17.84;50.67
51829;BME280;37881;48.024;8.774;2024-03-02T08:27:34;92778.09;;;16.11;56.15
51829;BME280;37881;48.024;8.774;2024-03-02T08:30:02;92786.63;;;15.39;59.10
51829;BME280;37881;48.024;8.774;2024-03-02T08:32:33;92782.34;;;14.51;63.42
51829;BME280;37881;48.024;8.774;2024-03-02T08:35:01;92783.53;;;15.07;65.00
51829;BME280;37881;48.024;8.774;2024-03-02T08:37:27;92777.78;;;17.15;57.77
51829;BME280;37881;48.024;8.774;2024-03-02T08:39:54;92777.50;;;17.34;53.00
51829;BME280;37881;48.024;8.774;2024-03-02T08:42:22;92779.22;;;15.60;58.04
51829;BME280;37881;48.024;8.774;2024-03-02T08:44:49;92773.41;;;16.17;59.69
51829;BME280;37881;48.024;8.774;2024-03-02T08:47:16;92769.50;;;16.95;54.92
51829;BME280;37881;48.024;8.774;2024-03-02T08:49:43;92774.00;;;18.12;52.87
51829;BME280;37881;48.024;8.774;2024-03-02T08:52:10;92775.31;;;17.90;50.87
51829;BME280;37881;48.024;8.774;2024-03-02T08:54:37;92770.00;;;16.78;54.08
51829;BME280;37881;48.024;8.774;2024-03-02T08:57:05;92768.03;;;18.62;48.35
51829;BME280;37881;48.024;8.774;2024-03-02T08:59:32;92762.47;;;17.20;51.19
51829;BME280;37881;48.024;8.774;2024-03-02T09:01:59;92754.41;;;17.22;50.87
51829;BME280;37881;48.024;8.774;2024-03-02T09:04:26;92756.91;;;17.20;51.21
51829;BME280;37881;48.024;8.774;2024-03-02T09:06:54;92743.28;;;17.89;50.76
51829;BME280;37881;48.024;8.774;2024-03-02T09:09:22;92746.31;;;20.48;44.58
51829;BME280;37881;48.024;8.774;2024-03-02T09:11:49;92754.91;;;19.11;43.50
51829;BME280;37881;48.024;8.774;2024-03-02T09:14:16;92746.78;;;18.59;46.44
51829;BME280;37881;48.024;8.774;2024-03-02T09:16:42;92733.84;;;20.78;41.26
51829;BME280;37881;48.024;8.774;2024-03-02T09:19:09;92736.66;;;18.99;43.62
51829;BME280;37881;48.024;8.774;2024-03-02T09:21:37;92733.38;;;20.40;41.88
51829;BME280;37881;48.024;8.774;2024-03-02T09:24:04;92731.56;;;17.53;44.44
51829;BME280;37881;48.024;8.774;2024-03-02T09:26:33;92723.91;;;18.75;45.99
51829;BME280;37881;48.024;8.774;2024-03-02T09:29:00;92723.50;;;20.67;41.02
51829;BME280;37881;48.024;8.774;2024-03-02T09:31:27;92721.16;;;20.88;40.20
51829;BME280;37881;48.024;8.774;2024-03-02T09:33:53;92714.16;;;22.11;39.24
51829;BME280;37881;48.024;8.774;2024-03-02T09:36:22;92717.59;;;21.57;38.54
51829;BME280;37881;48.024;8.774;2024-03-02T09:38:49;92726.19;;;19.43;41.35
51829;BME280;37881;48.024;8.774;2024-03-02T09:41:16;92713.72;;;21.13;38.18
51829;BME280;37881;48.024;8.774;2024-03-02T09:43:43;92713.34;;;19.56;41.59
51829;BME280;37881;48.024;8.774;2024-03-02T09:46:11;92705.13;;;21.00;39.16
51829;BME280;37881;48.024;8.774;2024-03-02T09:48:38;92710.22;;;20.95;39.05
51829;BME280;37881;48.024;8.774;2024-03-02T09:51:05;92702.69;;;21.79;38.27
51829;BME280;37881;48.024;8.774;2024-03-02T09:53:33;92713.69;;;19.04;42.09
51829;BME280;37881;48.024;8.774;2024-03-02T09:56:01;92713.16;;;19.83;41.80
51829;BME280;37881;48.024;8.774;2024-03-02T09:58:28;92706.81;;;19.93;42.21
51829;BME280;37881;48.024;8.774;2024-03-02T10:00:55;92695.22;;;23.08;37.74
51829;BME280;37881;48.024;8.774;2024-03-02T10:03:23;92691.25;;;25.64;33.28
51829;BME280;37881;48.024;8.774;2024-03-02T10:05:53;92689.47;;;25.54;31.06
51829;BME280;37881;48.024;8.774;2024-03-02T10:08:20;92689.13;;;25.91;30.82
51829;BME280;37881;48.024;8.774;2024-03-02T10:10:47;92687.31;;;25.06;31.58
51829;BME280;37881;48.024;8.774;2024-03-02T10:13:14;92687.03;;;25.23;29.82
51829;BME280;37881;48.024;8.774;2024-03-02T10:15:41;92689.00;;;21.34;34.67
51829;BME280;37881;48.024;8.774;2024-03-02T10:18:09;92690.06;;;22.08;34.70
51829;BME280;37881;48.024;8.774;2024-03-02T10:20:40;92692.72;;;21.01;36.26
51829;BME280;37881;48.024;8.774;2024-03-02T10:25:38;92683.84;;;25.00;31.34
51829;BME280;37881;48.024;8.774;2024-03-02T10:28:17;92683.22;;;25.07;30.44
51829;BME280;37881;48.024;8.774;2024-03-02T10:30:47;92685.66;;;22.49;33.81
51829;BME280;37881;48.024;8.774;2024-03-02T10:33:14;92687.81;;;23.49;32.95
51829;BME280;37881;48.024;8.774;2024-03-02T10:35:42;92690.94;;;21.92;33.57
51829;BME280;37881;48.024;8.774;2024-03-02T10:38:11;92676.34;;;21.74;35.59
51829;BME280;37881;48.024;8.774;2024-03-02T10:40:38;92670.25;;;21.76;34.64
51829;BME280;37881;48.024;8.774;2024-03-02T10:43:05;92676.94;;;20.05;37.08
51829;BME280;37881;48.024;8.774;2024-03-02T10:45:34;92681.06;;;18.50;39.99
51829;BME280;37881;48.024;8.774;2024-03-02T10:48:02;92672.38;;;20.30;37.25
51829;BME280;37881;48.024;8.774;2024-03-02T10:50:29;92661.88;;;21.76;35.52
51829;BME280;37881;48.024;8.774;2024-03-02T10:52:57;92663.97;;;19.51;37.95
51829;BME280;37881;48.024;8.774;2024-03-02T10:55:23;92659.34;;;23.07;33.90
51829;BME280;37881;48.024;8.774;2024-03-02T10:57:52;92661.06;;;22.66;32.75
51829;BME280;37881;48.024;8.774;2024-03-02T11:00:24;92659.13;;;23.81;31.40
51829;BME280;37881;48.024;8.774;2024-03-02T11:03:04;92655.94;;;26.53;28.72
51829;BME280;37881;48.024;8.774;2024-03-02T11:05:34;92652.53;;;26.05;28.43
51829;BME280;37881;48.024;8.774;2024-03-02T11:08:12;92654.69;;;19.88;36.39
51829;BME280;37881;48.024;8.774;2024-03-02T11:10:51;92645.91;;;22.31;31.40
51829;BME280;37881;48.024;8.774;2024-03-02T11:13:22;92648.06;;;18.64;36.94
51829;BME280;37881;48.024;8.774;2024-03-02T11:15:55;92627.34;;;21.43;35.94
51829;BME280;37881;48.024;8.774;2024-03-02T11:18:26;92632.09;;;15.56;43.97
51829;BME280;37881;48.024;8.774;2024-03-02T11:20:53;92635.97;;;15.79;46.33
51829;BME280;37881;48.024;8.774;2024-03-02T11:23:32;92627.94;;;18.80;41.83
51829;BME280;37881;48.024;8.774;2024-03-02T11:26:21;92620.50;;;22.79;34.85
51829;BME280;37881;48.024;8.774;2024-03-02T11:28:49;92605.34;;;25.35;30.89
51829;BME280;37881;48.024;8.774;2024-03-02T11:31:15;92628.28;;;21.87;33.88
51829;BME280;37881;48.024;8.774;2024-03-02T11:33:42;92618.34;;;22.90;33.18
51829;BME280;37881;48.024;8.774;2024-03-02T11:36:09;92609.00;;;21.06;34.33
51829;BME280;37881;48.024;8.774;2024-03-02T11:38:38;92610.00;;;20.50;36.99
51829;BME280;37881;48.024;8.774;2024-03-02T11:41:06;92622.22;;;17.08;42.36
51829;BME280;37881;48.024;8.774;2024-03-02T11:43:40;92605.06;;;21.26;36.33
51829;BME280;37881;48.024;8.774;2024-03-02T11:46:07;92602.94;;;23.22;33.30
51829;BME280;37881;48.024;8.774;2024-03-02T11:48:36;92602.31;;;23.10;32.38
51829;BME280;37881;48.024;8.774;2024-03-02T11:51:04;92591.19;;;21.87;33.46
51829;BME280;37881;48.024;8.774;2024-03-02T11:53:31;92586.16;;;23.73;31.59
51829;BME280;37881;48.024;8.774;2024-03-02T11:56:02;92593.47;;;23.06;33.01
51829;BME280;37881;48.024;8.774;2024-03-02T11:58:30;92578.38;;;22.27;33.45
51829;BME280;37881;48.024;8.774;2024-03-02T12:00:57;92582.38;;;20.52;35.89
51829;BME280;37881;48.024;8.774;2024-03-02T12:03:25;92581.59;;;20.52;36.00
51829;BME280;37881;48.024;8.774;2024-03-02T12:05:53;92570.59;;;20.07;35.99
51829;BME280;37881;48.024;8.774;2024-03-02T12:08:21;92566.59;;;19.57;36.50
51829;BME280;37881;48.024;8.774;2024-03-02T12:11:01;92567.09;;;18.28;38.38
51829;BME280;37881;48.024;8.774;2024-03-02T12:13:30;92568.25;;;18.04;39.71
51829;BME280;37881;48.024;8.774;2024-03-02T12:15:57;92558.34;;;17.92;39.08
51829;BME280;37881;48.024;8.774;2024-03-02T12:18:25;92559.72;;;14.92;44.06
51829;BME280;37881;48.024;8.774;2024-03-02T12:20:52;92567.75;;;14.12;47.14
51829;BME280;37881;48.024;8.774;2024-03-02T12:23:20;92559.03;;;14.14;48.39
51829;BME280;37881;48.024;8.774;2024-03-02T12:25:47;92556.38;;;15.18;47.67
51829;BME280;37881;48.024;8.774;2024-03-02T12:28:14;92558.88;;;14.86;46.19
51829;BME280;37881;48.024;8.774;2024-03-02T12:30:41;92552.66;;;14.76;46.52
51829;BME280;37881;48.024;8.774;2024-03-02T12:33:11;92549.88;;;14.47;49.02
51829;BME280;37881;48.024;8.774;2024-03-02T12:35:37;92550.69;;;14.77;48.82
51829;BME280;37881;48.024;8.774;2024-03-02T12:38:04;92552.53;;;14.41;51.27
51829;BME280;37881;48.024;8.774;2024-03-02T12:40:31;92543.16;;;13.61;55.50
51829;BME280;37881;48.024;8.774;2024-03-02T12:42:58;92538.69;;;14.26;57.00
51829;BME280;37881;48.024;8.774;2024-03-02T12:45:25;92548.00;;;13.90;57.77
51829;BME280;37881;48.024;8.774;2024-03-02T12:47:52;92547.31;;;13.56;61.61
51829;BME280;37881;48.024;8.774;2024-03-02T12:50:20;92546.31;;;13.02;68.32
51829;BME280;37881;48.024;8.774;2024-03-02T12:52:54;92539.31;;;12.91;65.43
51829;BME280;37881;48.024;8.774;2024-03-02T12:55:22;92532.84;;;13.46;64.00
51829;BME280;37881;48.024;8.774;2024-03-02T12:57:51;92544.50;;;12.89;66.24
51829;BME280;37881;48.024;8.774;2024-03-02T13:00:19;92542.56;;;12.81;65.42
51829;BME280;37881;48.024;8.774;2024-03-02T13:02:47;92538.00;;;13.11;62.41
51829;BME280;37881;48.024;8.774;2024-03-02T13:05:15;92531.38;;;12.84;62.86
51829;BME280;37881;48.024;8.774;2024-03-02T13:07:42;92532.94;;;12.76;61.65